sensor_id;sensor_type;location;lat;lon;timestamp;pressure;altitude;pressure_sealevel;temperature;humidity
32081;BME280;18593;51.426;7.030;2023-07-09T00:00:21;100712.56;;;26.14;40.59
32081;BME280;18593;51.426;7.030;2023-07-09T00:02:48;100711.28;;;26.12;40.72
32081;BME280;18593;51.426;7.030;2023-07-09T00:05:17;100709.97;;;26.09;41.12
32081;BME280;18593;51.426;7.030;2023-07-09T00:07:45;100713.34;;;26.06;40.79
32081;BME280;18593;51.426;7.030;2023-07-09T00:10:17;100712.81;;;26.04;40.97
32081;BME280;18593;51.426;7.030;2023-07-09T00:12:45;100708.47;;;26.03;41.26
32081;BME280;18593;51.426;7.030;2023-07-09T00:15:15;100704.41;;;26.01;41.34
32081;BME280;18593;51.426;7.030;2023-07-09T00:17:44;100711.00;;;26.00;41.59
32081;BME280;18593;51.426;7.030;2023-07-09T00:20:15;100706.19;;;25.97;41.84
32081;BME280;18593;51.426;7.030;2023-07-09T00:22:43;100699.88;;;25.96;41.92
32081;BME280;18593;51.426;7.030;2023-07-09T00:25:19;100709.03;;;25.91;41.70
32081;BME280;18593;51.426;7.030;2023-07-09T00:27:47;100707.41;;;25.90;41.87
32081;BME280;18593;51.426;7.030;2023-07-09T00:30:21;100709.84;;;25.92;41.86
32081;BME280;18593;51.426;7.030;2023-07-09T00:32:49;100702.72;;;25.91;41.67
32081;BME280;18593;51.426;7.030;2023-07-09T00:35:18;100707.91;;;25.92;41.48
32081;BME280;18593;51.426;7.030;2023-07-09T00:37:46;100707.91;;;25.92;41.66
32081;BME280;18593;51.426;7.030;2023-07-09T00:40:20;100696.97;;;25.92;41.96
32081;BME280;18593;51.426;7.030;2023-07-09T00:42:50;100697.25;;;25.91;42.13
32081;BME280;18593;51.426;7.030;2023-07-09T00:45:22;100698.09;;;25.91;41.80
32081;BME280;18593;51.426;7.030;2023-07-09T00:47:56;100702.72;;;25.91;42.13
32081;BME280;18593;51.426;7.030;2023-07-09T00:50:35;100703.03;;;25.89;42.47
32081;BME280;18593;51.426;7.030;2023-07-09T00:53:15;100697.69;;;25.84;42.81
32081;BME280;18593;51.426;7.030;2023-07-09T00:55:50;100698.00;;;25.83;43.22
32081;BME280;18593;51.426;7.030;2023-07-09T00:58:20;100701.34;;;25.80;43.45
32081;BME280;18593;51.426;7.030;2023-07-09T01:00:52;100703.88;;;25.76;43.48
32081;BME280;18593;51.426;7.030;2023-07-09T01:03:27;100700.94;;;25.73;43.74
32081;BME280;18593;51.426;7.030;2023-07-09T01:05:57;100705.09;;;25.70;43.88
32081;BME280;18593;51.426;7.030;2023-07-09T01:08:29;100703.78;;;25.67;44.05
32081;BME280;18593;51.426;7.030;2023-07-09T01:10:58;100707.13;;;25.64;44.30
32081;BME280;18593;51.426;7.030;2023-07-09T01:13:26;100710.19;;;25.63;44.43
32081;BME280;18593;51.426;7.030;2023-07-09T01:15:56;100702.91;;;25.58;44.40
32081;BME280;18593;51.426;7.030;2023-07-09T01:18:23;100709.75;;;25.56;44.54
32081;BME280;18593;51.426;7.030;2023-07-09T01:20:51;100705.75;;;25.53;44.84
32081;BME280;18593;51.426;7.030;2023-07-09T01:23:21;100703.59;;;25.50;44.72
32081;BME280;18593;51.426;7.030;2023-07-09T01:25:51;100705.31;;;25.46;44.92
32081;BME280;18593;51.426;7.030;2023-07-09T01:28:20;100710.28;;;25.44;45.43
32081;BME280;18593;51.426;7.030;2023-07-09T01:30:48;100703.50;;;25.41;45.45
32081;BME280;18593;51.426;7.030;2023-07-09T01:33:21;100698.97;;;25.37;45.71
32081;BME280;18593;51.426;7.030;2023-07-09T01:35:49;100707.78;;;25.34;45.62
32081;BME280;18593;51.426;7.030;2023-07-09T01:38:22;100715.75;;;25.30;45.96
32081;BME280;18593;51.426;7.030;2023-07-09T01:40:49;100703.81;;;25.26;45.80
32081;BME280;18593;51.426;7.030;2023-07-09T01:43:18;100705.53;;;25.22;45.84
32081;BME280;18593;51.426;7.030;2023-07-09T01:45:45;100697.16;;;25.19;46.30
32081;BME280;18593;51.426;7.030;2023-07-09T01:48:16;100704.34;;;25.14;46.30
32081;BME280;18593;51.426;7.030;2023-07-09T01:50:44;100700.28;;;25.12;46.39
32081;BME280;18593;51.426;7.030;2023-07-09T01:53:12;100705.53;;;25.08;46.74
32081;BME280;18593;51.426;7.030;2023-07-09T01:55:42;100699.06;;;25.04;46.83
32081;BME280;18593;51.426;7.030;2023-07-09T01:58:10;100698.53;;;25.02;46.82
32081;BME280;18593;51.426;7.030;2023-07-09T02:00:38;100705.69;;;24.98;46.77
32081;BME280;18593;51.426;7.030;2023-07-09T02:03:07;100703.59;;;24.95;47.21
32081;BME280;18593;51.426;7.030;2023-07-09T02:05:36;100706.91;;;24.92;47.13
32081;BME280;18593;51.426;7.030;2023-07-09T02:08:04;100703.16;;;24.88;47.52
32081;BME280;18593;51.426;7.030;2023-07-09T02:10:32;100706.50;;;24.85;47.50
32081;BME280;18593;51.426;7.030;2023-07-09T02:13:01;100718.81;;;24.82;47.78
32081;BME280;18593;51.426;7.030;2023-07-09T02:15:28;100714.78;;;24.80;48.01
32081;BME280;18593;51.426;7.030;2023-07-09T02:17:56;100720.84;;;24.77;47.77
32081;BME280;18593;51.426;7.030;2023-07-09T02:20:24;100721.41;;;24.74;48.32
32081;BME280;18593;51.426;7.030;2023-07-09T02:22:53;100713.84;;;24.71;48.23
32081;BME280;18593;51.426;7.030;2023-07-09T02:25:20;100716.38;;;24.67;48.47
32081;BME280;18593;51.426;7.030;2023-07-09T02:27:48;100721.31;;;24.65;48.68
32081;BME280;18593;51.426;7.030;2023-07-09T02:30:19;100716.47;;;24.62;48.67
32081;BME280;18593;51.426;7.030;2023-07-09T02:32:46;100717.03;;;24.59;48.66
32081;BME280;18593;51.426;7.030;2023-07-09T02:35:13;100721.19;;;24.56;48.78
32081;BME280;18593;51.426;7.030;2023-07-09T02:37:41;100719.06;;;24.53;48.97
32081;BME280;18593;51.426;7.030;2023-07-09T02:40:09;100719.66;;;24.50;49.00
32081;BME280;18593;51.426;7.030;2023-07-09T02:42:37;100721.88;;;24.48;49.01
32081;BME280;18593;51.426;7.030;2023-07-09T02:45:06;100715.91;;;24.46;49.11
32081;BME280;18593;51.426;7.030;2023-07-09T02:47:35;100718.41;;;24.43;49.17
32081;BME280;18593;51.426;7.030;2023-07-09T02:50:46;100734.56;;;24.39;49.41
32081;BME280;18593;51.426;7.030;2023-07-09T02:53:13;100735.16;;;24.36;49.26
32081;BME280;18593;51.426;7.030;2023-07-09T02:55:40;100744.69;;;24.33;49.28
32081;BME280;18593;51.426;7.030;2023-07-09T02:58:08;100741.47;;;24.31;49.39
32081;BME280;18593;51.426;7.030;2023-07-09T03:00:35;100741.25;;;24.28;49.50
32081;BME280;18593;51.426;7.030;2023-07-09T03:03:04;100747.00;;;24.26;49.43
32081;BME280;18593;51.426;7.030;2023-07-09T03:05:31;100747.28;;;24.25;49.40
32081;BME280;18593;51.426;7.030;2023-07-09T03:07:58;100748.41;;;24.24;49.48
32081;BME280;18593;51.426;7.030;2023-07-09T03:10:28;100746.28;;;24.21;49.56
32081;BME280;18593;51.426;7.030;2023-07-09T03:12:55;100743.03;;;24.19;50.01
32081;BME280;18593;51.426;7.030;2023-07-09T03:15:22;100752.88;;;24.14;49.91
32081;BME280;18593;51.426;7.030;2023-07-09T03:17:50;100745.00;;;24.13;50.13
32081;BME280;18593;51.426;7.030;2023-07-09T03:20:18;100758.94;;;24.11;50.39
32081;BME280;18593;51.426;7.030;2023-07-09T03:22:46;100754.06;;;24.08;50.42
32081;BME280;18593;51.426;7.030;2023-07-09T03:25:13;100765.28;;;24.07;50.14
32081;BME280;18593;51.426;7.030;2023-07-09T03:27:40;100762.31;;;24.03;50.34
32081;BME280;18593;51.426;7.030;2023-07-09T03:30:09;100760.72;;;24.02;50.47
32081;BME280;18593;51.426;7.030;2023-07-09T03:32:36;100758.06;;;23.97;50.74
32081;BME280;18593;51.426;7.030;2023-07-09T03:35:04;100763.78;;;23.96;50.73
32081;BME280;18593;51.426;7.030;2023-07-09T03:37:32;100764.88;;;23.95;50.92
32081;BME280;18593;51.426;7.030;2023-07-09T03:40:00;100769.53;;;23.94;50.77
32081;BME280;18593;51.426;7.030;2023-07-09T03:42:29;100768.22;;;23.92;51.08
32081;BME280;18593;51.426;7.030;2023-07-09T03:44:57;100763.84;;;23.90;50.88
32081;BME280;18593;51.426;7.030;2023-07-09T03:47:24;100763.03;;;23.90;51.19
32081;BME280;18593;51.426;7.030;2023-07-09T03:49:51;100764.47;;;23.87;51.36
32081;BME280;18593;51.426;7.030;2023-07-09T03:52:18;100765.84;;;23.85;51.32
32081;BME280;18593;51.426;7.030;2023-07-09T03:54:47;100765.84;;;23.85;51.67
32081;BME280;18593;51.426;7.030;2023-07-09T03:57:14;100767.25;;;23.82;51.71
32081;BME280;18593;51.426;7.030;2023-07-09T03:59:41;100769.16;;;23.82;51.84
32081;BME280;18593;51.426;7.030;2023-07-09T04:02:08;100767.25;;;23.82;52.12
32081;BME280;18593;51.426;7.030;2023-07-09T04:04:36;100764.78;;;23.81;51.91
32081;BME280;18593;51.426;7.030;2023-07-09T04:07:04;100770.53;;;23.79;52.05
32081;BME280;18593;51.426;7.030;2023-07-09T04:09:31;100771.34;;;23.80;52.24
32081;BME280;18593;51.426;7.030;2023-07-09T04:11:59;100772.97;;;23.81;52.21
32081;BME280;18593;51.426;7.030;2023-07-09T04:14:27;100771.06;;;23.81;52.38
32081;BME280;18593;51.426;7.030;2023-07-09T04:16:54;100772.69;;;23.82;52.52
32081;BME280;18593;51.426;7.030;2023-07-09T04:19:21;100769.97;;;23.82;52.70
32081;BME280;18593;51.426;7.030;2023-07-09T04:21:48;100774.00;;;23.85;52.80
32081;BME280;18593;51.426;7.030;2023-07-09T04:24:17;100768.28;;;23.86;53.22
32081;BME280;18593;51.426;7.030;2023-07-09T04:26:45;100769.91;;;23.87;53.13
32081;BME280;18593;51.426;7.030;2023-07-09T04:29:14;100775.34;;;23.87;53.61
32081;BME280;18593;51.426;7.030;2023-07-09T04:31:41;100773.44;;;23.88;53.34
32081;BME280;18593;51.426;7.030;2023-07-09T04:34:09;100772.81;;;23.91;53.16
32081;BME280;18593;51.426;7.030;2023-07-09T04:36:36;100773.06;;;23.95;53.43
32081;BME280;18593;51.426;7.030;2023-07-09T04:39:03;100769.16;;;24.01;53.49
32081;BME280;18593;51.426;7.030;2023-07-09T04:41:31;100768.81;;;24.07;53.30
32081;BME280;18593;51.426;7.030;2023-07-09T04:43:58;100766.81;;;24.13;52.99
32081;BME280;18593;51.426;7.030;2023-07-09T04:46:27;100774.03;;;24.23;52.36
32081;BME280;18593;51.426;7.030;2023-07-09T04:48:54;100767.41;;;24.29;52.77
32081;BME280;18593;51.426;7.030;2023-07-09T04:51:22;100772.22;;;24.37;52.99
32081;BME280;18593;51.426;7.030;2023-07-09T04:53:50;100766.38;;;24.44;52.56
32081;BME280;18593;51.426;7.030;2023-07-09T04:56:18;100769.25;;;24.52;52.00
32081;BME280;18593;51.426;7.030;2023-07-09T04:58:45;100768.59;;;24.60;52.20
32081;BME280;18593;51.426;7.030;2023-07-09T05:01:12;100779.41;;;24.65;51.92
32081;BME280;18593;51.426;7.030;2023-07-09T05:03:40;100768.09;;;24.72;52.01
32081;BME280;18593;51.426;7.030;2023-07-09T05:06:08;100772.88;;;24.80;51.96
32081;BME280;18593;51.426;7.030;2023-07-09T05:08:35;100774.91;;;24.88;52.12
32081;BME280;18593;51.426;7.030;2023-07-09T05:11:02;100766.94;;;24.92;51.75
32081;BME280;18593;51.426;7.030;2023-07-09T05:13:29;100771.72;;;25.00;51.79
32081;BME280;18593;51.426;7.030;2023-07-09T05:15:56;100778.41;;;25.08;51.61
32081;BME280;18593;51.426;7.030;2023-07-09T05:18:23;100770.13;;;25.13;51.62
32081;BME280;18593;51.426;7.030;2023-07-09T05:20:52;100773.69;;;25.13;51.41
32081;BME280;18593;51.426;7.030;2023-07-09T05:23:19;100777.03;;;25.10;51.74
32081;BME280;18593;51.426;7.030;2023-07-09T05:25:46;100777.94;;;25.20;51.59
32081;BME280;18593;51.426;7.030;2023-07-09T05:28:14;100779.38;;;25.31;51.58
32081;BME280;18593;51.426;7.030;2023-07-09T05:30:42;100778.69;;;25.39;50.55
32081;BME280;18593;51.426;7.030;2023-07-09T05:33:09;100769.75;;;25.47;50.63
32081;BME280;18593;51.426;7.030;2023-07-09T05:35:36;100765.22;;;25.56;50.67
32081;BME280;18593;51.426;7.030;2023-07-09T05:38:05;100776.03;;;25.61;50.46
32081;BME280;18593;51.426;7.030;2023-07-09T05:40:32;100775.44;;;25.64;50.76
32081;BME280;18593;51.426;7.030;2023-07-09T05:42:59;100780.41;;;25.76;51.55
32081;BME280;18593;51.426;7.030;2023-07-09T05:45:26;100777.16;;;25.88;51.32
32081;BME280;18593;51.426;7.030;2023-07-09T05:47:54;100782.41;;;25.98;50.26
32081;BME280;18593;51.426;7.030;2023-07-09T05:50:21;100782.97;;;26.09;50.72
32081;BME280;18593;51.426;7.030;2023-07-09T05:52:48;100777.59;;;26.17;50.83
32081;BME280;18593;51.426;7.030;2023-07-09T05:55:17;100775.75;;;26.27;51.06
32081;BME280;18593;51.426;7.030;2023-07-09T05:57:44;100773.38;;;26.34;51.03
32081;BME280;18593;51.426;7.030;2023-07-09T06:00:13;100782.50;;;26.43;50.95
32081;BME280;18593;51.426;7.030;2023-07-09T06:02:40;100780.75;;;26.47;50.53
32081;BME280;18593;51.426;7.030;2023-07-09T06:05:08;100784.19;;;26.53;50.87
32081;BME280;18593;51.426;7.030;2023-07-09T06:07:37;100779.38;;;26.58;51.98
32081;BME280;18593;51.426;7.030;2023-07-09T06:10:06;100786.66;;;26.63;51.60
32081;BME280;18593;51.426;7.030;2023-07-09T06:12:35;100787.84;;;26.70;51.70
32081;BME280;18593;51.426;7.030;2023-07-09T06:15:04;100790.94;;;26.78;50.87
32081;BME280;18593;51.426;7.030;2023-07-09T06:17:32;100796.28;;;26.83;50.96
32081;BME280;18593;51.426;7.030;2023-07-09T06:19:59;100793.94;;;26.90;50.91
32081;BME280;18593;51.426;7.030;2023-07-09T06:22:26;100788.50;;;26.99;52.54
32081;BME280;18593;51.426;7.030;2023-07-09T06:24:54;100788.88;;;27.06;51.84
32081;BME280;18593;51.426;7.030;2023-07-09T06:27:21;100785.53;;;27.09;51.15
32081;BME280;18593;51.426;7.030;2023-07-09T06:29:50;100781.88;;;27.13;50.81
32081;BME280;18593;51.426;7.030;2023-07-09T06:32:18;100788.16;;;27.23;50.21
32081;BME280;18593;51.426;7.030;2023-07-09T06:34:45;100781.59;;;27.32;50.76
32081;BME280;18593;51.426;7.030;2023-07-09T06:37:13;100778.91;;;27.41;51.26
32081;BME280;18593;51.426;7.030;2023-07-09T06:39:40;100783.56;;;27.40;49.95
32081;BME280;18593;51.426;7.030;2023-07-09T06:42:08;100791.03;;;27.49;50.54
32081;BME280;18593;51.426;7.030;2023-07-09T06:44:57;100784.44;;;27.58;49.29
32081;BME280;18593;51.426;7.030;2023-07-09T06:47:25;100783.34;;;27.68;48.01
32081;BME280;18593;51.426;7.030;2023-07-09T06:49:52;100782.91;;;27.75;48.05
32081;BME280;18593;51.426;7.030;2023-07-09T06:52:19;100799.84;;;27.85;48.36
32081;BME280;18593;51.426;7.030;2023-07-09T06:54:46;100786.97;;;27.94;47.48
32081;BME280;18593;51.426;7.030;2023-07-09T06:57:15;100793.59;;;28.02;48.65
32081;BME280;18593;51.426;7.030;2023-07-09T06:59:42;100790.03;;;28.10;48.29
32081;BME280;18593;51.426;7.030;2023-07-09T07:02:10;100797.97;;;28.20;48.64
32081;BME280;18593;51.426;7.030;2023-07-09T07:04:38;100793.16;;;28.26;47.17
32081;BME280;18593;51.426;7.030;2023-07-09T07:07:05;100800.41;;;28.31;47.39
32081;BME280;18593;51.426;7.030;2023-07-09T07:09:32;100792.03;;;28.36;46.55
32081;BME280;18593;51.426;7.030;2023-07-09T07:12:00;100800.13;;;28.41;47.94
32081;BME280;18593;51.426;7.030;2023-07-09T07:14:27;100794.78;;;28.44;46.79
32081;BME280;18593;51.426;7.030;2023-07-09T07:16:56;100798.19;;;28.41;45.32
32081;BME280;18593;51.426;7.030;2023-07-09T07:19:24;100797.69;;;28.48;45.25
32081;BME280;18593;51.426;7.030;2023-07-09T07:21:52;100793.78;;;28.58;46.81
32081;BME280;18593;51.426;7.030;2023-07-09T07:24:19;100789.13;;;28.58;44.73
32081;BME280;18593;51.426;7.030;2023-07-09T07:26:46;100786.88;;;28.60;45.46
32081;BME280;18593;51.426;7.030;2023-07-09T07:29:13;100785.22;;;28.68;45.57
32081;BME280;18593;51.426;7.030;2023-07-09T07:31:40;100785.84;;;28.73;45.23
32081;BME280;18593;51.426;7.030;2023-07-09T07:34:08;100784.56;;;28.80;46.46
32081;BME280;18593;51.426;7.030;2023-07-09T07:36:37;100783.72;;;28.88;45.06
32081;BME280;18593;51.426;7.030;2023-07-09T07:39:04;100784.34;;;28.93;46.20
32081;BME280;18593;51.426;7.030;2023-07-09T07:41:31;100787.63;;;29.04;44.82
32081;BME280;18593;51.426;7.030;2023-07-09T07:43:58;100789.22;;;29.05;44.52
32081;BME280;18593;51.426;7.030;2023-07-09T07:46:25;100783.53;;;29.10;44.97
32081;BME280;18593;51.426;7.030;2023-07-09T07:48:53;100784.53;;;28.97;45.14
32081;BME280;18593;51.426;7.030;2023-07-09T07:51:20;100785.03;;;28.99;45.46
32081;BME280;18593;51.426;7.030;2023-07-09T07:53:49;100787.13;;;29.02;45.78
32081;BME280;18593;51.426;7.030;2023-07-09T07:56:16;100784.53;;;29.06;45.35
32081;BME280;18593;51.426;7.030;2023-07-09T07:58:44;100784.34;;;29.11;47.22
32081;BME280;18593;51.426;7.030;2023-07-09T08:01:11;100783.81;;;29.26;46.91
32081;BME280;18593;51.426;7.030;2023-07-09T08:03:38;100786.88;;;29.24;46.25
32081;BME280;18593;51.426;7.030;2023-07-09T08:06:05;100775.72;;;29.30;45.20
32081;BME280;18593;51.426;7.030;2023-07-09T08:08:33;100777.28;;;29.39;44.75
32081;BME280;18593;51.426;7.030;2023-07-09T08:11:04;100773.38;;;29.49;44.52
32081;BME280;18593;51.426;7.030;2023-07-09T08:13:34;100775.94;;;29.54;45.47
32081;BME280;18593;51.426;7.030;2023-07-09T08:16:02;100767.16;;;29.61;45.33
32081;BME280;18593;51.426;7.030;2023-07-09T08:18:30;100768.47;;;29.63;44.43
32081;BME280;18593;51.426;7.030;2023-07-09T08:20:58;100771.97;;;29.72;44.95
32081;BME280;18593;51.426;7.030;2023-07-09T08:23:26;100775.53;;;29.73;43.18
32081;BME280;18593;51.426;7.030;2023-07-09T08:25:53;100779.06;;;29.73;43.24
32081;BME280;18593;51.426;7.030;2023-07-09T08:28:22;100763.63;;;29.81;43.84
32081;BME280;18593;51.426;7.030;2023-07-09T08:30:52;100770.25;;;29.89;43.96
32081;BME280;18593;51.426;7.030;2023-07-09T08:33:20;100761.63;;;29.90;45.12
32081;BME280;18593;51.426;7.030;2023-07-09T08:35:49;100765.00;;;29.96;43.89
32081;BME280;18593;51.426;7.030;2023-07-09T08:38:17;100762.38;;;29.99;44.03
32081;BME280;18593;51.426;7.030;2023-07-09T08:40:54;100757.16;;;30.07;43.83
32081;BME280;18593;51.426;7.030;2023-07-09T08:43:34;100752.25;;;30.12;42.23
32081;BME280;18593;51.426;7.030;2023-07-09T08:46:14;100746.28;;;30.10;42.45
32081;BME280;18593;51.426;7.030;2023-07-09T08:48:47;100750.94;;;30.18;41.94
32081;BME280;18593;51.426;7.030;2023-07-09T08:51:21;100744.63;;;30.18;42.52
32081;BME280;18593;51.426;7.030;2023-07-09T08:53:57;100744.56;;;30.26;42.86
32081;BME280;18593;51.426;7.030;2023-07-09T08:56:25;100751.09;;;30.22;41.92
32081;BME280;18593;51.426;7.030;2023-07-09T08:58:56;100747.03;;;30.19;41.66
32081;BME280;18593;51.426;7.030;2023-07-09T09:01:31;100741.47;;;30.28;42.46
32081;BME280;18593;51.426;7.030;2023-07-09T09:04:07;100741.06;;;30.38;41.93
32081;BME280;18593;51.426;7.030;2023-07-09T09:06:42;100739.09;;;30.39;42.12
32081;BME280;18593;51.426;7.030;2023-07-09T09:09:25;100747.94;;;30.44;40.87
32081;BME280;18593;51.426;7.030;2023-07-09T09:12:03;100737.34;;;30.55;40.72
32081;BME280;18593;51.426;7.030;2023-07-09T09:14:39;100746.28;;;30.64;41.16
32081;BME280;18593;51.426;7.030;2023-07-09T09:17:12;100732.19;;;30.66;41.30
32081;BME280;18593;51.426;7.030;2023-07-09T09:19:46;100736.50;;;30.75;40.79
32081;BME280;18593;51.426;7.030;2023-07-09T09:22:21;100732.47;;;30.73;39.97
32081;BME280;18593;51.426;7.030;2023-07-09T09:24:58;100727.53;;;30.78;39.50
32081;BME280;18593;51.426;7.030;2023-07-09T09:27:29;100739.84;;;30.81;39.80
32081;BME280;18593;51.426;7.030;2023-07-09T09:29:57;100735.78;;;30.78;39.46
32081;BME280;18593;51.426;7.030;2023-07-09T09:32:27;100737.22;;;30.85;41.88
32081;BME280;18593;51.426;7.030;2023-07-09T09:34:55;100733.06;;;30.91;41.35
32081;BME280;18593;51.426;7.030;2023-07-09T09:37:28;100731.69;;;30.97;40.62
32081;BME280;18593;51.426;7.030;2023-07-09T09:39:56;100734.72;;;31.04;39.71
32081;BME280;18593;51.426;7.030;2023-07-09T09:42:26;100729.88;;;31.01;39.65
32081;BME280;18593;51.426;7.030;2023-07-09T09:44:54;100727.03;;;31.10;38.41
32081;BME280;18593;51.426;7.030;2023-07-09T09:47:26;100722.44;;;31.14;39.04
32081;BME280;18593;51.426;7.030;2023-07-09T09:49:54;100725.16;;;31.26;39.70
32081;BME280;18593;51.426;7.030;2023-07-09T09:52:28;100726.94;;;31.31;40.38
32081;BME280;18593;51.426;7.030;2023-07-09T09:55:08;100727.38;;;31.33;40.71
32081;BME280;18593;51.426;7.030;2023-07-09T09:57:37;100726.34;;;31.37;39.55
32081;BME280;18593;51.426;7.030;2023-07-09T10:00:12;100731.84;;;31.37;38.56
32081;BME280;18593;51.426;7.030;2023-07-09T10:02:43;100722.78;;;31.37;37.83
32081;BME280;18593;51.426;7.030;2023-07-09T10:05:13;100730.50;;;31.43;39.59
32081;BME280;18593;51.426;7.030;2023-07-09T10:07:47;100723.47;;;31.46;37.13
32081;BME280;18593;51.426;7.030;2023-07-09T10:10:21;100721.19;;;31.48;39.59
32081;BME280;18593;51.426;7.030;2023-07-09T10:12:52;100717.72;;;31.51;37.97
32081;BME280;18593;51.426;7.030;2023-07-09T10:15:26;100714.03;;;31.47;36.95
32081;BME280;18593;51.426;7.030;2023-07-09T10:18:02;100710.72;;;31.53;39.66
32081;BME280;18593;51.426;7.030;2023-07-09T10:20:36;100706.44;;;31.56;39.75
32081;BME280;18593;51.426;7.030;2023-07-09T10:23:18;100690.63;;;31.53;38.19
32081;BME280;18593;51.426;7.030;2023-07-09T10:25:52;100705.19;;;31.53;36.90
32081;BME280;18593;51.426;7.030;2023-07-09T10:31:37;100691.97;;;31.59;38.13
32081;BME280;18593;51.426;7.030;2023-07-09T10:34:17;100683.47;;;31.64;36.68
32081;BME280;18593;51.426;7.030;2023-07-09T10:37:04;100684.25;;;31.65;35.70
32081;BME280;18593;51.426;7.030;2023-07-09T10:39:40;100691.69;;;31.76;37.72
32081;BME280;18593;51.426;7.030;2023-07-09T10:42:18;100693.53;;;31.85;37.50
32081;BME280;18593;51.426;7.030;2023-07-09T10:44:56;100688.81;;;31.85;36.63
32081;BME280;18593;51.426;7.030;2023-07-09T10:47:30;100685.03;;;31.90;35.88
32081;BME280;18593;51.426;7.030;2023-07-09T10:50:02;100689.38;;;31.91;33.96
32081;BME280;18593;51.426;7.030;2023-07-09T10:52:34;100697.91;;;31.86;33.63
32081;BME280;18593;51.426;7.030;2023-07-09T10:55:09;100695.63;;;31.88;35.54
32081;BME280;18593;51.426;7.030;2023-07-09T10:57:48;100693.75;;;31.92;33.00
32081;BME280;18593;51.426;7.030;2023-07-09T11:00:21;100694.88;;;32.03;33.87
32081;BME280;18593;51.426;7.030;2023-07-09T11:02:53;100687.28;;;32.00;33.22
32081;BME280;18593;51.426;7.030;2023-07-09T11:05:26;100690.28;;;31.95;33.57
32081;BME280;18593;51.426;7.030;2023-07-09T11:08:02;100688.88;;;32.01;35.96
32081;BME280;18593;51.426;7.030;2023-07-09T11:10:35;100689.34;;;32.03;33.60
32081;BME280;18593;51.426;7.030;2023-07-09T11:13:09;100688.38;;;32.11;35.69
32081;BME280;18593;51.426;7.030;2023-07-09T11:15:41;100681.53;;;32.21;36.05
32081;BME280;18593;51.426;7.030;2023-07-09T11:18:16;100676.59;;;32.26;36.65
32081;BME280;18593;51.426;7.030;2023-07-09T11:20:47;100674.53;;;32.23;34.34
32081;BME280;18593;51.426;7.030;2023-07-09T11:23:24;100672.13;;;32.22;35.74
32081;BME280;18593;51.426;7.030;2023-07-09T11:26:02;100663.75;;;32.18;32.98
32081;BME280;18593;51.426;7.030;2023-07-09T11:28:34;100651.91;;;32.18;32.61
32081;BME280;18593;51.426;7.030;2023-07-09T11:31:06;100657.00;;;32.32;35.52
32081;BME280;18593;51.426;7.030;2023-07-09T11:33:34;100656.06;;;32.40;34.87
32081;BME280;18593;51.426;7.030;2023-07-09T11:36:23;100646.03;;;32.35;33.08
32081;BME280;18593;51.426;7.030;2023-07-09T11:38:53;100639.72;;;32.35;34.99
32081;BME280;18593;51.426;7.030;2023-07-09T11:41:28;100647.47;;;32.29;33.69
32081;BME280;18593;51.426;7.030;2023-07-09T11:44:04;100637.16;;;32.26;34.26
32081;BME280;18593;51.426;7.030;2023-07-09T11:46:32;100634.13;;;32.31;34.88
32081;BME280;18593;51.426;7.030;2023-07-09T11:49:02;100639.72;;;32.35;34.71
32081;BME280;18593;51.426;7.030;2023-07-09T11:51:38;100628.38;;;32.36;33.27
32081;BME280;18593;51.426;7.030;2023-07-09T11:54:11;100628.25;;;32.33;34.04
32081;BME280;18593;51.426;7.030;2023-07-09T11:56:39;100633.28;;;32.30;33.65
32081;BME280;18593;51.426;7.030;2023-07-09T11:59:11;100635.63;;;32.28;34.00
32081;BME280;18593;51.426;7.030;2023-07-09T12:04:14;100632.50;;;32.30;34.26
32081;BME280;18593;51.426;7.030;2023-07-09T12:06:45;100630.75;;;32.38;34.22
32081;BME280;18593;51.426;7.030;2023-07-09T12:09:16;100639.59;;;32.43;33.32
32081;BME280;18593;51.426;7.030;2023-07-09T12:11:45;100640.03;;;32.45;33.56
32081;BME280;18593;51.426;7.030;2023-07-09T12:14:16;100639.22;;;32.45;33.43
32081;BME280;18593;51.426;7.030;2023-07-09T12:16:45;100638.34;;;32.41;32.07
32081;BME280;18593;51.426;7.030;2023-07-09T12:19:17;100636.66;;;32.36;33.15
32081;BME280;18593;51.426;7.030;2023-07-09T12:21:48;100632.00;;;32.40;34.80
32081;BME280;18593;51.426;7.030;2023-07-09T12:24:22;100638.25;;;32.37;33.55
32081;BME280;18593;51.426;7.030;2023-07-09T12:26:52;100638.78;;;32.43;33.27
32081;BME280;18593;51.426;7.030;2023-07-09T12:29:19;100639.78;;;32.50;33.74
32081;BME280;18593;51.426;7.030;2023-07-09T12:31:47;100640.22;;;32.52;32.79
32081;BME280;18593;51.426;7.030;2023-07-09T12:34:14;100638.94;;;32.50;34.61
32081;BME280;18593;51.426;7.030;2023-07-09T12:36:46;100632.03;;;32.56;33.83
32081;BME280;18593;51.426;7.030;2023-07-09T12:39:20;100628.00;;;32.53;33.18
32081;BME280;18593;51.426;7.030;2023-07-09T12:41:49;100622.31;;;32.46;31.22
32081;BME280;18593;51.426;7.030;2023-07-09T12:44:19;100618.66;;;32.42;33.34
32081;BME280;18593;51.426;7.030;2023-07-09T12:46:49;100620.88;;;32.37;33.53
32081;BME280;18593;51.426;7.030;2023-07-09T12:49:28;100621.19;;;32.35;33.73
32081;BME280;18593;51.426;7.030;2023-07-09T12:52:00;100615.38;;;32.37;35.70
32081;BME280;18593;51.426;7.030;2023-07-09T12:54:29;100614.19;;;32.38;35.43
32081;BME280;18593;51.426;7.030;2023-07-09T12:56:59;100613.63;;;32.32;35.56
32081;BME280;18593;51.426;7.030;2023-07-09T12:59:37;100611.22;;;32.30;37.23
32081;BME280;18593;51.426;7.030;2023-07-09T13:02:15;100606.16;;;32.33;35.18
32081;BME280;18593;51.426;7.030;2023-07-09T13:04:44;100604.63;;;32.35;37.45
32081;BME280;18593;51.426;7.030;2023-07-09T13:07:31;100605.44;;;32.36;37.64
32081;BME280;18593;51.426;7.030;2023-07-09T13:10:15;100601.44;;;32.33;36.42